sensor_id;sensor_type;location;lat;lon;timestamp;pressure;altitude;pressure_sealevel;temperature;humidity
22605;BME280;11469;49.024;8.246;2023-10-08T00:00:26;101285.75;;;14.90;81.05
22605;BME280;11469;49.024;8.246;2023-10-08T00:03:09;101276.13;;;14.91;81.08
22605;BME280;11469;49.024;8.246;2023-10-08T00:05:36;101282.66;;;14.95;80.86
22605;BME280;11469;49.024;8.246;2023-10-08T00:08:02;101281.09;;;14.98;80.74
22605;BME280;11469;49.024;8.246;2023-10-08T00:10:27;101287.19;;;15.00;80.47
22605;BME280;11469;49.024;8.246;2023-10-08T00:12:52;101284.00;;;15.01;80.26
22605;BME280;11469;49.024;8.246;2023-10-08T00:15:18;101279.63;;;15.04;80.18
22605;BME280;11469;49.024;8.246;2023-10-08T00:17:43;101278.50;;;15.08;80.13
22605;BME280;11469;49.024;8.246;2023-10-08T00:20:11;101275.31;;;15.10;79.65
22605;BME280;11469;49.024;8.246;2023-10-08T00:22:41;101261.63;;;15.12;79.50
22605;BME280;11469;49.024;8.246;2023-10-08T00:25:07;101280.63;;;15.15;79.34
22605;BME280;11469;49.024;8.246;2023-10-08T00:27:36;101277.00;;;15.14;79.23
22605;BME280;11469;49.024;8.246;2023-10-08T00:30:04;101269.34;;;15.15;79.23
22605;BME280;11469;49.024;8.246;2023-10-08T00:32:38;101266.88;;;15.13;79.09
22605;BME280;11469;49.024;8.246;2023-10-08T00:35:04;101264.47;;;15.12;79.38
22605;BME280;11469;49.024;8.246;2023-10-08T00:37:30;101261.63;;;15.12;79.14
22605;BME280;11469;49.024;8.246;2023-10-08T00:39:56;101266.97;;;15.17;78.78
22605;BME280;11469;49.024;8.246;2023-10-08T00:42:22;101270.16;;;15.15;79.08
22605;BME280;11469;49.024;8.246;2023-10-08T00:44:47;101269.94;;;15.24;78.63
22605;BME280;11469;49.024;8.246;2023-10-08T00:47:14;101261.47;;;15.24;78.35
22605;BME280;11469;49.024;8.246;2023-10-08T00:49:39;101253.28;;;15.19;78.56
22605;BME280;11469;49.024;8.246;2023-10-08T00:52:14;101252.53;;;15.22;79.08
22605;BME280;11469;49.024;8.246;2023-10-08T00:54:41;101246.72;;;15.11;79.91
22605;BME280;11469;49.024;8.246;2023-10-08T00:57:19;101238.38;;;14.99;81.25
22605;BME280;11469;49.024;8.246;2023-10-08T00:59:47;101249.53;;;14.92;81.24
22605;BME280;11469;49.024;8.246;2023-10-08T01:02:15;101241.88;;;14.92;81.49
22605;BME280;11469;49.024;8.246;2023-10-08T01:04:45;101245.50;;;14.93;80.98
22605;BME280;11469;49.024;8.246;2023-10-08T01:07:12;101247.59;;;14.96;80.54
22605;BME280;11469;49.024;8.246;2023-10-08T01:09:43;101243.81;;;14.88;80.46
22605;BME280;11469;49.024;8.246;2023-10-08T01:12:18;101241.34;;;14.87;80.27
22605;BME280;11469;49.024;8.246;2023-10-08T01:14:53;101250.19;;;14.85;80.44
22605;BME280;11469;49.024;8.246;2023-10-08T01:17:20;101250.19;;;14.85;79.92
22605;BME280;11469;49.024;8.246;2023-10-08T01:19:49;101248.63;;;14.88;79.60
22605;BME280;11469;49.024;8.246;2023-10-08T01:22:20;101246.09;;;14.83;79.74
22605;BME280;11469;49.024;8.246;2023-10-08T01:24:48;101247.66;;;14.80;79.86
22605;BME280;11469;49.024;8.246;2023-10-08T01:27:17;101254.69;;;14.71;79.99
22605;BME280;11469;49.024;8.246;2023-10-08T01:29:50;101259.06;;;14.68;80.32
22605;BME280;11469;49.024;8.246;2023-10-08T01:32:17;101257.38;;;14.64;80.40
22605;BME280;11469;49.024;8.246;2023-10-08T01:34:44;101257.75;;;14.62;80.21
22605;BME280;11469;49.024;8.246;2023-10-08T01:37:13;101258.03;;;14.57;80.64
22605;BME280;11469;49.024;8.246;2023-10-08T01:39:39;101262.31;;;14.51;80.79
22605;BME280;11469;49.024;8.246;2023-10-08T01:42:08;101251.94;;;14.55;80.67
22605;BME280;11469;49.024;8.246;2023-10-08T01:44:42;101254.22;;;14.49;81.12
22605;BME280;11469;49.024;8.246;2023-10-08T01:47:10;101248.69;;;14.53;80.90
22605;BME280;11469;49.024;8.246;2023-10-08T01:49:36;101251.94;;;14.55;80.65
22605;BME280;11469;49.024;8.246;2023-10-08T01:52:04;101250.69;;;14.52;80.58
22605;BME280;11469;49.024;8.246;2023-10-08T01:54:38;101245.41;;;14.51;80.50
22605;BME280;11469;49.024;8.246;2023-10-08T01:57:04;101251.78;;;14.48;80.80
22605;BME280;11469;49.024;8.246;2023-10-08T01:59:31;101247.25;;;14.43;81.28
22605;BME280;11469;49.024;8.246;2023-10-08T02:01:57;101246.22;;;14.36;81.34
22605;BME280;11469;49.024;8.246;2023-10-08T02:04:23;101245.25;;;14.44;80.67
22605;BME280;11469;49.024;8.246;2023-10-08T02:06:48;101245.84;;;14.53;80.05
22605;BME280;11469;49.024;8.246;2023-10-08T02:09:14;101242.03;;;14.45;79.61
22605;BME280;11469;49.024;8.246;2023-10-08T02:11:48;101245.59;;;14.42;79.52
22605;BME280;11469;49.024;8.246;2023-10-08T02:14:21;101237.97;;;14.43;78.93
22605;BME280;11469;49.024;8.246;2023-10-08T02:16:48;101243.75;;;14.34;79.51
22605;BME280;11469;49.024;8.246;2023-10-08T02:19:15;101246.94;;;14.33;79.35
22605;BME280;11469;49.024;8.246;2023-10-08T02:21:44;101248.78;;;14.25;79.50
22605;BME280;11469;49.024;8.246;2023-10-08T02:24:12;101250.78;;;14.24;79.43
22605;BME280;11469;49.024;8.246;2023-10-08T02:26:41;101253.16;;;14.22;79.61
22605;BME280;11469;49.024;8.246;2023-10-08T02:29:09;101249.50;;;14.22;79.81
22605;BME280;11469;49.024;8.246;2023-10-08T02:31:40;101247.72;;;14.14;80.39
22605;BME280;11469;49.024;8.246;2023-10-08T02:34:06;101240.81;;;14.11;80.40
22605;BME280;11469;49.024;8.246;2023-10-08T02:36:36;101239.47;;;14.05;80.48
22605;BME280;11469;49.024;8.246;2023-10-08T02:39:03;101242.81;;;14.11;80.44
22605;BME280;11469;49.024;8.246;2023-10-08T02:41:32;101236.81;;;14.12;80.15
22605;BME280;11469;49.024;8.246;2023-10-08T02:43:57;101240.28;;;14.06;80.57
22605;BME280;11469;49.024;8.246;2023-10-08T02:46:24;101242.00;;;14.10;80.52
22605;BME280;11469;49.024;8.246;2023-10-08T02:48:52;101242.56;;;14.00;80.75
22605;BME280;11469;49.024;8.246;2023-10-08T02:51:18;101250.19;;;14.00;81.07
22605;BME280;11469;49.024;8.246;2023-10-08T02:53:46;101249.66;;;13.94;81.22
22605;BME280;11469;49.024;8.246;2023-10-08T02:56:12;101259.19;;;13.89;81.39
22605;BME280;11469;49.024;8.246;2023-10-08T02:58:39;101248.56;;;13.83;81.50
22605;BME280;11469;49.024;8.246;2023-10-08T03:01:06;101254.00;;;13.76;82.03
22605;BME280;11469;49.024;8.246;2023-10-08T03:03:32;101250.28;;;13.72;82.59
22605;BME280;11469;49.024;8.246;2023-10-08T03:05:58;101248.38;;;13.76;82.02
22605;BME280;11469;49.024;8.246;2023-10-08T03:08:23;101244.72;;;13.75;82.14
22605;BME280;11469;49.024;8.246;2023-10-08T03:10:50;101252.38;;;13.75;82.22
22605;BME280;11469;49.024;8.246;2023-10-08T03:13:21;101247.38;;;13.68;82.80
22605;BME280;11469;49.024;8.246;2023-10-08T03:15:47;101246.75;;;13.59;82.90
22605;BME280;11469;49.024;8.246;2023-10-08T03:18:28;101241.38;;;13.54;83.15
22605;BME280;11469;49.024;8.246;2023-10-08T03:21:04;101243.84;;;13.55;83.20
22605;BME280;11469;49.024;8.246;2023-10-08T03:23:30;101236.47;;;13.51;83.67
22605;BME280;11469;49.024;8.246;2023-10-08T03:26:01;101244.81;;;13.47;83.75
22605;BME280;11469;49.024;8.246;2023-10-08T03:28:35;101248.44;;;13.48;83.49
22605;BME280;11469;49.024;8.246;2023-10-08T03:31:01;101243.19;;;13.46;83.14
22605;BME280;11469;49.024;8.246;2023-10-08T03:33:34;101245.53;;;13.44;83.32
22605;BME280;11469;49.024;8.246;2023-10-08T03:36:07;101248.34;;;13.44;82.74
22605;BME280;11469;49.024;8.246;2023-10-08T03:38:36;101245.78;;;13.39;83.35
22605;BME280;11469;49.024;8.246;2023-10-08T03:41:23;101253.31;;;13.35;83.21
22605;BME280;11469;49.024;8.246;2023-10-08T03:43:56;101262.94;;;13.34;82.97
22605;BME280;11469;49.024;8.246;2023-10-08T03:46:31;101255.06;;;13.40;82.05
22605;BME280;11469;49.024;8.246;2023-10-08T03:48:57;101261.50;;;13.40;81.89
22605;BME280;11469;49.024;8.246;2023-10-08T03:51:30;101264.59;;;13.35;81.89
22605;BME280;11469;49.024;8.246;2023-10-08T03:54:00;101261.78;;;13.35;81.77
22605;BME280;11469;49.024;8.246;2023-10-08T03:56:34;101263.41;;;13.36;81.62
22605;BME280;11469;49.024;8.246;2023-10-08T03:59:02;101259.78;;;13.36;81.64
22605;BME280;11469;49.024;8.246;2023-10-08T04:01:46;101246.66;;;13.27;82.31
22605;BME280;11469;49.024;8.246;2023-10-08T04:04:14;101253.41;;;13.23;82.61
22605;BME280;11469;49.024;8.246;2023-10-08T04:06:43;101253.78;;;13.21;82.69
22605;BME280;11469;49.024;8.246;2023-10-08T04:09:17;101238.28;;;13.15;83.06
22605;BME280;11469;49.024;8.246;2023-10-08T04:11:46;101245.00;;;13.11;82.98
22605;BME280;11469;49.024;8.246;2023-10-08T04:14:14;101240.53;;;13.10;83.21
22605;BME280;11469;49.024;8.246;2023-10-08T04:16:42;101231.38;;;13.13;83.55
22605;BME280;11469;49.024;8.246;2023-10-08T04:19:07;101234.53;;;13.11;83.25
22605;BME280;11469;49.024;8.246;2023-10-08T04:21:33;101231.97;;;13.18;83.44
22605;BME280;11469;49.024;8.246;2023-10-08T04:24:01;101231.38;;;13.13;83.22
22605;BME280;11469;49.024;8.246;2023-10-08T04:26:30;101222.38;;;13.07;83.60
22605;BME280;11469;49.024;8.246;2023-10-08T04:28:57;101228.72;;;13.04;84.00
22605;BME280;11469;49.024;8.246;2023-10-08T04:31:24;101231.06;;;13.02;84.15
22605;BME280;11469;49.024;8.246;2023-10-08T04:34:02;101238.59;;;12.98;84.76
22605;BME280;11469;49.024;8.246;2023-10-08T04:36:33;101234.94;;;12.98;84.84
22605;BME280;11469;49.024;8.246;2023-10-08T04:38:58;101242.56;;;12.97;84.57
22605;BME280;11469;49.024;8.246;2023-10-08T04:41:30;101237.56;;;12.90;85.16
22605;BME280;11469;49.024;8.246;2023-10-08T04:43:55;101240.72;;;12.89;85.06
22605;BME280;11469;49.024;8.246;2023-10-08T04:46:21;101242.97;;;12.83;85.46
22605;BME280;11469;49.024;8.246;2023-10-08T04:49:15;101244.41;;;12.77;85.78
22605;BME280;11469;49.024;8.246;2023-10-08T04:52:04;101243.84;;;12.72;86.22
22605;BME280;11469;49.024;8.246;2023-10-08T04:54:41;101250.66;;;12.71;86.69
22605;BME280;11469;49.024;8.246;2023-10-08T04:57:07;101248.09;;;12.66;86.65
22605;BME280;11469;49.024;8.246;2023-10-08T04:59:44;101251.56;;;12.75;86.97
22605;BME280;11469;49.024;8.246;2023-10-08T05:02:10;101256.88;;;12.64;87.18
22605;BME280;11469;49.024;8.246;2023-10-08T05:04:39;101251.03;;;12.57;87.49
22605;BME280;11469;49.024;8.246;2023-10-08T05:07:20;101260.63;;;12.56;87.83
22605;BME280;11469;49.024;8.246;2023-10-08T05:09:51;101265.69;;;12.50;88.20
22605;BME280;11469;49.024;8.246;2023-10-08T05:12:29;101269.78;;;12.41;89.15
22605;BME280;11469;49.024;8.246;2023-10-08T05:15:06;101265.47;;;12.43;89.18
22605;BME280;11469;49.024;8.246;2023-10-08T05:17:37;101270.16;;;12.39;89.60
22605;BME280;11469;49.024;8.246;2023-10-08T05:20:23;101274.00;;;12.35;89.90
22605;BME280;11469;49.024;8.246;2023-10-08T05:23:10;101274.38;;;12.33;89.93
22605;BME280;11469;49.024;8.246;2023-10-08T05:25:56;101267.69;;;12.38;89.63
22605;BME280;11469;49.024;8.246;2023-10-08T05:28:31;101269.09;;;12.32;89.76
22605;BME280;11469;49.024;8.246;2023-10-08T05:31:07;101267.94;;;12.33;89.96
22605;BME280;11469;49.024;8.246;2023-10-08T05:33:44;101266.63;;;12.30;90.05
22605;BME280;11469;49.024;8.246;2023-10-08T05:36:28;101263.59;;;12.35;89.72
22605;BME280;11469;49.024;8.246;2023-10-08T05:39:01;101264.41;;;12.36;89.85
22605;BME280;11469;49.024;8.246;2023-10-08T05:41:41;101263.81;;;12.42;89.21
22605;BME280;11469;49.024;8.246;2023-10-08T05:44:17;101256.31;;;12.46;88.91
22605;BME280;11469;49.024;8.246;2023-10-08T05:46:42;101260.88;;;12.51;88.57
22605;BME280;11469;49.024;8.246;2023-10-08T05:49:37;101250.56;;;12.55;88.35
22605;BME280;11469;49.024;8.246;2023-10-08T05:52:18;101250.78;;;12.62;87.70
22605;BME280;11469;49.024;8.246;2023-10-08T05:55:13;101253.47;;;12.71;86.77
22605;BME280;11469;49.024;8.246;2023-10-08T05:57:59;101262.56;;;12.80;86.11
22605;BME280;11469;49.024;8.246;2023-10-08T06:00:47;101251.63;;;12.90;85.40
22605;BME280;11469;49.024;8.246;2023-10-08T06:03:19;101249.28;;;12.92;85.72
22605;BME280;11469;49.024;8.246;2023-10-08T06:05:47;101248.56;;;12.95;85.50
22605;BME280;11469;49.024;8.246;2023-10-08T06:08:29;101249.13;;;13.01;85.27
22605;BME280;11469;49.024;8.246;2023-10-08T06:11:14;101254.03;;;13.04;85.48
22605;BME280;11469;49.024;8.246;2023-10-08T06:13:53;101240.53;;;13.10;85.28
22605;BME280;11469;49.024;8.246;2023-10-08T06:16:25;101250.63;;;13.11;85.23
22605;BME280;11469;49.024;8.246;2023-10-08T06:19:07;101248.50;;;13.20;84.95
22605;BME280;11469;49.024;8.246;2023-10-08T06:21:33;101254.47;;;13.18;85.26
22605;BME280;11469;49.024;8.246;2023-10-08T06:23:59;101244.97;;;13.23;85.18
22605;BME280;11469;49.024;8.246;2023-10-08T06:26:25;101251.78;;;13.22;85.46
22605;BME280;11469;49.024;8.246;2023-10-08T06:28:52;101246.50;;;13.20;85.32
22605;BME280;11469;49.024;8.246;2023-10-08T06:31:22;101245.75;;;13.23;84.80
22605;BME280;11469;49.024;8.246;2023-10-08T06:33:50;101249.38;;;13.24;84.04
22605;BME280;11469;49.024;8.246;2023-10-08T06:36:15;101249.59;;;13.31;83.13
22605;BME280;11469;49.024;8.246;2023-10-08T06:38:45;101262.59;;;13.36;83.06
22605;BME280;11469;49.024;8.246;2023-10-08T06:41:14;101276.75;;;13.39;82.33
22605;BME280;11469;49.024;8.246;2023-10-08T06:43:46;101276.50;;;13.44;81.82
22605;BME280;11469;49.024;8.246;2023-10-08T06:46:19;101276.25;;;13.49;81.97
22605;BME280;11469;49.024;8.246;2023-10-08T06:48:46;101284.44;;;13.54;81.35
22605;BME280;11469;49.024;8.246;2023-10-08T06:51:14;101299.72;;;13.69;80.49
22605;BME280;11469;49.024;8.246;2023-10-08T06:53:44;101295.81;;;13.74;80.66
22605;BME280;11469;49.024;8.246;2023-10-08T06:56:11;101300.00;;;13.80;80.60
22605;BME280;11469;49.024;8.246;2023-10-08T06:58:38;101301.38;;;13.86;80.70
22605;BME280;11469;49.024;8.246;2023-10-08T07:01:04;101290.28;;;13.93;80.51
22605;BME280;11469;49.024;8.246;2023-10-08T07:03:31;101293.94;;;14.09;80.20
22605;BME280;11469;49.024;8.246;2023-10-08T07:05:57;101295.75;;;14.17;79.50
22605;BME280;11469;49.024;8.246;2023-10-08T07:08:29;101315.25;;;14.26;79.51
22605;BME280;11469;49.024;8.246;2023-10-08T07:11:00;101325.63;;;14.38;78.58
22605;BME280;11469;49.024;8.246;2023-10-08T07:13:27;101325.56;;;14.50;77.94
22605;BME280;11469;49.024;8.246;2023-10-08T07:15:55;101328.66;;;14.60;79.19
22605;BME280;11469;49.024;8.246;2023-10-08T07:18:21;101334.97;;;14.73;77.72
22605;BME280;11469;49.024;8.246;2023-10-08T07:20:57;101331.88;;;14.78;77.56
22605;BME280;11469;49.024;8.246;2023-10-08T07:23:27;101332.03;;;14.85;77.91
22605;BME280;11469;49.024;8.246;2023-10-08T07:25:59;101332.19;;;14.92;77.61
22605;BME280;11469;49.024;8.246;2023-10-08T07:28:41;101316.97;;;14.97;77.48
22605;BME280;11469;49.024;8.246;2023-10-08T07:31:17;101316.84;;;15.09;77.10
22605;BME280;11469;49.024;8.246;2023-10-08T07:33:50;101308.50;;;15.16;77.83
22605;BME280;11469;49.024;8.246;2023-10-08T07:36:31;101312.38;;;15.27;77.71
22605;BME280;11469;49.024;8.246;2023-10-08T07:38:56;101304.19;;;15.42;77.22
22605;BME280;11469;49.024;8.246;2023-10-08T07:41:22;101304.41;;;15.52;77.34
22605;BME280;11469;49.024;8.246;2023-10-08T07:43:48;101309.91;;;15.65;76.63
22605;BME280;11469;49.024;8.246;2023-10-08T07:46:21;101306.59;;;15.82;76.09
22605;BME280;11469;49.024;8.246;2023-10-08T07:48:47;101301.16;;;15.92;75.24
22605;BME280;11469;49.024;8.246;2023-10-08T07:51:14;101305.81;;;16.04;74.22
22605;BME280;11469;49.024;8.246;2023-10-08T07:53:39;101302.75;;;16.16;72.23
22605;BME280;11469;49.024;8.246;2023-10-08T07:56:07;101323.63;;;16.31;71.48
22605;BME280;11469;49.024;8.246;2023-10-08T07:58:34;101318.19;;;16.45;70.72
22605;BME280;11469;49.024;8.246;2023-10-08T08:01:07;101327.69;;;16.60;69.40
22605;BME280;11469;49.024;8.246;2023-10-08T08:03:34;101344.06;;;16.70;67.89
22605;BME280;11469;49.024;8.246;2023-10-08T08:06:03;101351.59;;;16.85;67.90
22605;BME280;11469;49.024;8.246;2023-10-08T08:08:38;101351.75;;;16.96;67.60
22605;BME280;11469;49.024;8.246;2023-10-08T08:11:07;101355.19;;;17.12;66.27
22605;BME280;11469;49.024;8.246;2023-10-08T08:13:38;101357.75;;;17.21;64.87
22605;BME280;11469;49.024;8.246;2023-10-08T08:16:04;101355.88;;;17.32;65.50
22605;BME280;11469;49.024;8.246;2023-10-08T08:18:45;101350.41;;;17.46;64.84
22605;BME280;11469;49.024;8.246;2023-10-08T08:21:12;101354.50;;;17.52;63.84
22605;BME280;11469;49.024;8.246;2023-10-08T08:23:45;101357.47;;;17.63;63.90
22605;BME280;11469;49.024;8.246;2023-10-08T08:26:18;101359.22;;;17.71;63.57
22605;BME280;11469;49.024;8.246;2023-10-08T08:28:58;101352.81;;;17.78;63.76
22605;BME280;11469;49.024;8.246;2023-10-08T08:31:25;101348.75;;;17.79;63.32
22605;BME280;11469;49.024;8.246;2023-10-08T08:33:51;101350.75;;;17.75;63.04
22605;BME280;11469;49.024;8.246;2023-10-08T08:36:27;101354.00;;;17.77;64.28
22605;BME280;11469;49.024;8.246;2023-10-08T08:38:52;101356.03;;;17.76;64.41
22605;BME280;11469;49.024;8.246;2023-10-08T08:41:19;101362.91;;;17.75;64.14
22605;BME280;11469;49.024;8.246;2023-10-08T08:43:53;101372.69;;;17.81;64.95
22605;BME280;11469;49.024;8.246;2023-10-08T08:46:28;101372.34;;;17.86;64.11
22605;BME280;11469;49.024;8.246;2023-10-08T08:48:55;101363.06;;;17.89;64.07
22605;BME280;11469;49.024;8.246;2023-10-08T08:51:23;101373.25;;;17.98;63.79
22605;BME280;11469;49.024;8.246;2023-10-08T08:53:48;101377.34;;;18.00;64.26
22605;BME280;11469;49.024;8.246;2023-10-08T08:56:15;101380.22;;;18.04;64.65
22605;BME280;11469;49.024;8.246;2023-10-08T08:58:41;101382.72;;;18.12;65.19
22605;BME280;11469;49.024;8.246;2023-10-08T09:01:11;101375.50;;;18.18;64.96
22605;BME280;11469;49.024;8.246;2023-10-08T09:03:38;101380.03;;;18.27;64.96
22605;BME280;11469;49.024;8.246;2023-10-08T09:06:05;101380.16;;;18.37;65.12
22605;BME280;11469;49.024;8.246;2023-10-08T09:08:35;101377.78;;;18.46;65.08
22605;BME280;11469;49.024;8.246;2023-10-08T09:11:01;101372.94;;;18.50;64.77
22605;BME280;11469;49.024;8.246;2023-10-08T09:13:27;101369.91;;;18.73;65.56
22605;BME280;11469;49.024;8.246;2023-10-08T09:15:57;101360.25;;;18.81;65.68
22605;BME280;11469;49.024;8.246;2023-10-08T09:18:29;101353.00;;;18.95;64.91
22605;BME280;11469;49.024;8.246;2023-10-08T09:21:07;101352.63;;;19.00;64.83
22605;BME280;11469;49.024;8.246;2023-10-08T09:23:39;101344.53;;;19.02;65.44
22605;BME280;11469;49.024;8.246;2023-10-08T09:26:10;101357.97;;;19.08;65.67
22605;BME280;11469;49.024;8.246;2023-10-08T09:28:39;101357.19;;;19.15;66.04
22605;BME280;11469;49.024;8.246;2023-10-08T09:31:09;101353.13;;;19.16;66.16
22605;BME280;11469;49.024;8.246;2023-10-08T09:33:37;101355.25;;;19.33;66.30
22605;BME280;11469;49.024;8.246;2023-10-08T09:36:02;101356.09;;;19.37;65.54
22605;BME280;11469;49.024;8.246;2023-10-08T09:38:33;101361.81;;;19.48;65.73
22605;BME280;11469;49.024;8.246;2023-10-08T09:40:59;101365.94;;;19.58;65.22
22605;BME280;11469;49.024;8.246;2023-10-08T09:43:28;101360.75;;;19.77;65.23
22605;BME280;11469;49.024;8.246;2023-10-08T09:45:59;101361.53;;;19.85;64.77
22605;BME280;11469;49.024;8.246;2023-10-08T09:48:26;101357.53;;;20.04;65.36
22605;BME280;11469;49.024;8.246;2023-10-08T09:50:53;101358.78;;;20.13;64.23
22605;BME280;11469;49.024;8.246;2023-10-08T09:53:28;101362.44;;;20.17;63.48
22605;BME280;11469;49.024;8.246;2023-10-08T09:55:57;101351.47;;;20.23;63.97
22605;BME280;11469;49.024;8.246;2023-10-08T09:58:27;101349.88;;;20.43;64.12
22605;BME280;11469;49.024;8.246;2023-10-08T10:00:55;101342.94;;;20.48;63.22
22605;BME280;11469;49.024;8.246;2023-10-08T10:03:21;101358.81;;;20.56;63.83
22605;BME280;11469;49.024;8.246;2023-10-08T10:05:49;101367.38;;;20.63;62.96
22605;BME280;11469;49.024;8.246;2023-10-08T10:08:15;101366.16;;;20.71;63.29
22605;BME280;11469;49.024;8.246;2023-10-08T10:10:42;101361.25;;;20.72;62.30
22605;BME280;11469;49.024;8.246;2023-10-08T10:13:13;101358.78;;;20.81;63.36
22605;BME280;11469;49.024;8.246;2023-10-08T10:15:39;101369.75;;;20.90;62.74
22605;BME280;11469;49.024;8.246;2023-10-08T10:18:13;101362.84;;;20.98;62.07
22605;BME280;11469;49.024;8.246;2023-10-08T10:20:45;101364.88;;;20.97;62.25
22605;BME280;11469;49.024;8.246;2023-10-08T10:23:40;101367.69;;;21.08;61.90
22605;BME280;11469;49.024;8.246;2023-10-08T10:26:29;101366.47;;;21.16;62.00
22605;BME280;11469;49.024;8.246;2023-10-08T10:34:10;101357.47;;;21.35;61.38
22605;BME280;11469;49.024;8.246;2023-10-08T10:36:39;101359.06;;;21.43;61.60
22605;BME280;11469;49.024;8.246;2023-10-08T10:39:06;101361.47;;;21.48;62.01
22605;BME280;11469;49.024;8.246;2023-10-08T10:41:47;101366.38;;;21.44;61.83
22605;BME280;11469;49.024;8.246;2023-10-08T10:44:16;101368.00;;;21.45;61.53
22605;BME280;11469;49.024;8.246;2023-10-08T10:46:43;101365.56;;;21.44;60.70
22605;BME280;11469;49.024;8.246;2023-10-08T10:49:16;101364.28;;;21.59;61.57
22605;BME280;11469;49.024;8.246;2023-10-08T10:51:49;101356.53;;;21.63;61.78
22605;BME280;11469;49.024;8.246;2023-10-08T10:54:17;101354.09;;;21.65;62.27
22605;BME280;11469;49.024;8.246;2023-10-08T10:56:47;101350.44;;;21.61;62.12
22605;BME280;11469;49.024;8.246;2023-10-08T10:59:13;101344.28;;;21.66;62.42
22605;BME280;11469;49.024;8.246;2023-10-08T11:01:49;101343.41;;;21.76;61.01
22605;BME280;11469;49.024;8.246;2023-10-08T11:04:20;101334.38;;;21.85;62.02
22605;BME280;11469;49.024;8.246;2023-10-08T11:06:54;101327.47;;;21.82;61.99
22605;BME280;11469;49.024;8.246;2023-10-08T11:09:24;101327.44;;;21.86;62.13
22605;BME280;11469;49.024;8.246;2023-10-08T11:12:12;101312.28;;;22.00;62.13
22605;BME280;11469;49.024;8.246;2023-10-08T11:14:42;101310.19;;;22.11;61.86
22605;BME280;11469;49.024;8.246;2023-10-08T11:17:15;101303.25;;;22.12;61.30
22605;BME280;11469;49.024;8.246;2023-10-08T11:19:43;101302.81;;;22.17;61.46
22605;BME280;11469;49.024;8.246;2023-10-08T11:22:11;101302.72;;;22.24;60.87
22605;BME280;11469;49.024;8.246;2023-10-08T11:24:42;101297.41;;;22.26;60.69
22605;BME280;11469;49.024;8.246;2023-10-08T11:27:10;101295.81;;;22.22;60.54
22605;BME280;11469;49.024;8.246;2023-10-08T11:29:43;101297.88;;;22.21;60.71
22605;BME280;11469;49.024;8.246;2023-10-08T11:32:10;101301.50;;;22.25;60.82
22605;BME280;11469;49.024;8.246;2023-10-08T11:34:38;101298.31;;;22.20;60.64
22605;BME280;11469;49.024;8.246;2023-10-08T11:37:05;101290.50;;;22.24;60.65
22605;BME280;11469;49.024;8.246;2023-10-08T11:39:47;101293.69;;;22.33;61.02
22605;BME280;11469;49.024;8.246;2023-10-08T11:42:13;101298.97;;;22.34;60.54
22605;BME280;11469;49.024;8.246;2023-10-08T11:44:59;101299.72;;;22.42;60.65
22605;BME280;11469;49.024;8.246;2023-10-08T11:47:25;101297.59;;;22.53;60.41
22605;BME280;11469;49.024;8.246;2023-10-08T11:49:56;101304.47;;;22.59;59.95
22605;BME280;11469;49.024;8.246;2023-10-08T11:52:35;101297.50;;;22.64;59.15
22605;BME280;11469;49.024;8.246;2023-10-08T11:55:07;101299.41;;;22.74;57.45
22605;BME280;11469;49.024;8.246;2023-10-08T11:57:32;101292.50;;;22.71;56.34
22605;BME280;11469;49.024;8.246;2023-10-08T12:00:04;101294.50;;;22.74;57.41
22605;BME280;11469;49.024;8.246;2023-10-08T12:02:45;101288.38;;;22.79;57.58
22605;BME280;11469;49.024;8.246;2023-10-08T12:05:10;101283.03;;;22.81;56.82
22605;BME280;11469;49.024;8.246;2023-10-08T12:07:48;101290.38;;;22.82;56.82
22605;BME280;11469;49.024;8.246;2023-10-08T12:10:14;101283.81;;;22.86;56.73
22605;BME280;11469;49.024;8.246;2023-10-08T12:12:50;101280.44;;;22.94;56.92
22605;BME280;11469;49.024;8.246;2023-10-08T12:15:18;101280.38;;;23.01;56.19
22605;BME280;11469;49.024;8.246;2023-10-08T12:17:51;101278.25;;;23.09;56.00
22605;BME280;11469;49.024;8.246;2023-10-08T12:20:38;101269.50;;;23.20;56.39
22605;BME280;11469;49.024;8.246;2023-10-08T12:23:05;101269.75;;;23.32;56.60
22605;BME280;11469;49.024;8.246;2023-10-08T12:25:32;101269.72;;;23.36;56.67
22605;BME280;11469;49.024;8.246;2023-10-08T12:27:59;101272.47;;;23.43;56.46
22605;BME280;11469;49.024;8.246;2023-10-08T12:30:28;101257.78;;;23.41;55.67
22605;BME280;11469;49.024;8.246;2023-10-08T12:32:59;101261.03;;;23.43;56.37
22605;BME280;11469;49.024;8.246;2023-10-08T12:35:26;101266.28;;;23.48;56.13
22605;BME280;11469;49.024;8.246;2023-10-08T12:37:51;101259.28;;;23.53;55.82
22605;BME280;11469;49.024;8.246;2023-10-08T12:40:17;101258.00;;;23.57;55.22
22605;BME280;11469;49.024;8.246;2023-10-08T12:42:51;101260.31;;;23.66;54.69
22605;BME280;11469;49.024;8.246;2023-10-08T12:45:17;101262.25;;;23.72;55.37
22605;BME280;11469;49.024;8.246;2023-10-08T12:47:52;101253.63;;;23.76;54.99
22605;BME280;11469;49.024;8.246;2023-10-08T12:50:19;101255.53;;;23.86;55.11
22605;BME280;11469;49.024;8.246;2023-10-08T12:52:57;101257.09;;;23.91;54.67
22605;BME280;11469;49.024;8.246;2023-10-08T12:55:26;101249.56;;;24.00;53.98
22605;BME280;11469;49.024;8.246;2023-10-08T12:57:52;101236.00;;;24.04;53.29
22605;BME280;11469;49.024;8.246;2023-10-08T13:00:24;101235.94;;;24.08;53.68
22605;BME280;11469;49.024;8.246;2023-10-08T13:02:51;101235.44;;;24.13;54.42
22605;BME280;11469;49.024;8.246;2023-10-08T13:05:22;101230.81;;;24.19;54.02
22605;BME280;11469;49.024;8.246;2023-10-08T13:07:55;101232.81;;;24.22;53.68
22605;BME280;11469;49.024;8.246;2023-10-08T13:10:22;101236.06;;;24.24;53.45
22605;BME280;11469;49.024;8.246;2023-10-08T13:12:48;101236.47;;;24.26;54.72